Nearby METAR Reports

 

NZWN - Wellington Intl, New Zealand
Distance from station: SSE 156km
Updated: Mon, 24-Sep-2018 2:30am NZST
Mostly cloudy
Mostly cloudy
 Wind from NNE
Wind: NNE 24 km/h
Temperature: 12°C
Dew Point: 9°C
Humidity: 82%
Barometer: 1006 hPa
Clouds: Mostly cloudy
Visibility: 10 km
Cloud details: Mostly cloudy 549 m
2018/09/23 14:30 NZWN 231430Z AUTO 02013KT 9999 BKN018/// 12/09 Q1006 NOSIG
NZAA - Auckland Intl Ar, New Zealand
Distance from station: N 334km
Updated: Mon, 24-Sep-2018 2:30am NZST
Mostly cloudy
Mostly cloudy
 Wind from SW
Wind: SW 19 km/h
Temperature: 13°C
Dew Point: 7°C
Humidity: 67%
Barometer: 1011 hPa
Clouds: Mostly cloudy
Visibility: 10 km
Cloud details: Mostly cloudy 1189 m
2018/09/23 14:30 NZAA 231430Z AUTO 23010KT 9999 BKN039/// 13/07 Q1011 NOSIG
 
NZWP - Whenuapai (nz-Af, New Zealand
Distance from station: N 359km
Updated: Sun, 19-Aug-2018 3:00pm NZST
NOT Current
Partly cloudy
Partly cloudy
 Wind from WNW
Wind: WNW 24 km/h
Temperature: 13°C
Dew Point: 8°C
Humidity: 72%
Barometer: 1011 hPa
Clouds: Partly cloudy
Cloud details: Partly cloudy 853 m
2018/08/19 03:00 NZWP 190300Z 29013KT 20KM SCT028 13/08 Q1011 NOSIG
NZCH - Christchurch Int, New Zealand
Distance from station: SSW 412km
Updated: Mon, 24-Sep-2018 2:30am NZST
Overcast
Overcast
 Wind from WSW
Wind: WSW 11 km/h
Temperature: 9°C
Wind Chill: 7°C
Dew Point: 7°C
Humidity: 87%
Barometer: 1006 hPa
Clouds: Overcast
Visibility: 10 km
Cloud details: Mostly cloudy 1219 m
Overcast 1524 m
2018/09/23 14:30 NZCH 231430Z AUTO 25006KT 210V290 9999 BKN040/// OVC050/// 09/07 Q1006

Metar display script from Saratoga-Weather.org